sensor_id;sensor_type;location;lat;lon;timestamp;temperature;humidity
59301;DHT22;45073;52.740;6.784;2023-07-20T00:02:11;17.30;99.90
59301;DHT22;45073;52.740;6.784;2023-07-20T00:04:36;17.20;99.90
59301;DHT22;45073;52.740;6.784;2023-07-20T00:07:03;17.20;99.90
59301;DHT22;45073;52.740;6.784;2023-07-20T00:09:29;17.20;99.90
59301;DHT22;45073;52.740;6.784;2023-07-20T00:11:54;17.20;99.90
59301;DHT22;45073;52.740;6.784;2023-07-20T00:14:20;17.20;99.90
59301;DHT22;45073;52.740;6.784;2023-07-20T00:16:46;17.10;99.90
59301;DHT22;45073;52.740;6.784;2023-07-20T00:19:14;17.10;99.90
59301;DHT22;45073;52.740;6.784;2023-07-20T00:21:41;17.10;99.90
59301;DHT22;45073;52.740;6.784;2023-07-20T00:24:08;17.10;99.90
59301;DHT22;45073;52.740;6.784;2023-07-20T00:26:34;17.10;99.90
59301;DHT22;45073;52.740;6.784;2023-07-20T00:28:59;17.10;99.90
59301;DHT22;45073;52.740;6.784;2023-07-20T00:31:25;17.00;99.90
59301;DHT22;45073;52.740;6.784;2023-07-20T00:33:51;17.00;99.90
59301;DHT22;45073;52.740;6.784;2023-07-20T00:36:16;17.00;99.90
59301;DHT22;45073;52.740;6.784;2023-07-20T00:38:42;16.90;99.90
59301;DHT22;45073;52.740;6.784;2023-07-20T00:41:08;16.90;99.90
59301;DHT22;45073;52.740;6.784;2023-07-20T00:43:33;16.90;99.90
59301;DHT22;45073;52.740;6.784;2023-07-20T00:45:59;16.80;99.90
59301;DHT22;45073;52.740;6.784;2023-07-20T00:48:25;16.80;99.90
59301;DHT22;45073;52.740;6.784;2023-07-20T00:50:51;16.80;99.90
59301;DHT22;45073;52.740;6.784;2023-07-20T00:53:17;16.80;99.90
59301;DHT22;45073;52.740;6.784;2023-07-20T00:55:42;16.80;99.90
59301;DHT22;45073;52.740;6.784;2023-07-20T00:58:09;16.80;99.90
59301;DHT22;45073;52.740;6.784;2023-07-20T01:00:34;16.70;99.90
59301;DHT22;45073;52.740;6.784;2023-07-20T01:03:00;16.70;99.90
59301;DHT22;45073;52.740;6.784;2023-07-20T01:08:39;16.60;99.90
59301;DHT22;45073;52.740;6.784;2023-07-20T01:14:09;16.60;99.90
59301;DHT22;45073;52.740;6.784;2023-07-20T01:16:37;16.60;99.90
59301;DHT22;45073;52.740;6.784;2023-07-20T01:19:03;16.60;99.90
59301;DHT22;45073;52.740;6.784;2023-07-20T01:21:45;16.50;99.90
59301;DHT22;45073;52.740;6.784;2023-07-20T01:30:16;16.40;99.90
59301;DHT22;45073;52.740;6.784;2023-07-20T01:32:44;16.30;99.90
59301;DHT22;45073;52.740;6.784;2023-07-20T01:35:13;16.30;99.90
59301;DHT22;45073;52.740;6.784;2023-07-20T01:37:43;16.30;99.90
59301;DHT22;45073;52.740;6.784;2023-07-20T01:40:10;16.20;99.90
59301;DHT22;45073;52.740;6.784;2023-07-20T01:42:37;16.10;99.90
59301;DHT22;45073;52.740;6.784;2023-07-20T01:45:03;16.20;99.90
59301;DHT22;45073;52.740;6.784;2023-07-20T01:47:28;16.20;99.90
59301;DHT22;45073;52.740;6.784;2023-07-20T01:49:54;16.20;99.90
59301;DHT22;45073;52.740;6.784;2023-07-20T01:52:20;16.10;99.90
59301;DHT22;45073;52.740;6.784;2023-07-20T01:54:45;16.10;99.90
59301;DHT22;45073;52.740;6.784;2023-07-20T01:57:11;16.10;99.90
59301;DHT22;45073;52.740;6.784;2023-07-20T01:59:36;16.10;99.90
59301;DHT22;45073;52.740;6.784;2023-07-20T02:02:02;16.00;99.90
59301;DHT22;45073;52.740;6.784;2023-07-20T02:04:28;16.10;99.90
59301;DHT22;45073;52.740;6.784;2023-07-20T02:06:53;16.00;99.90
59301;DHT22;45073;52.740;6.784;2023-07-20T02:09:19;15.90;99.90
59301;DHT22;45073;52.740;6.784;2023-07-20T02:11:45;15.90;99.90
59301;DHT22;45073;52.740;6.784;2023-07-20T02:14:10;16.00;99.90
59301;DHT22;45073;52.740;6.784;2023-07-20T02:16:36;16.00;99.90
59301;DHT22;45073;52.740;6.784;2023-07-20T02:19:02;15.90;99.90
59301;DHT22;45073;52.740;6.784;2023-07-20T02:21:28;15.90;99.90
59301;DHT22;45073;52.740;6.784;2023-07-20T02:23:53;15.80;99.90
59301;DHT22;45073;52.740;6.784;2023-07-20T02:26:19;15.70;99.90
59301;DHT22;45073;52.740;6.784;2023-07-20T02:28:44;15.70;99.90
59301;DHT22;45073;52.740;6.784;2023-07-20T02:31:10;15.70;99.90
59301;DHT22;45073;52.740;6.784;2023-07-20T02:33:35;15.70;99.90
59301;DHT22;45073;52.740;6.784;2023-07-20T02:36:01;15.60;99.90
59301;DHT22;45073;52.740;6.784;2023-07-20T02:38:27;15.60;99.90
59301;DHT22;45073;52.740;6.784;2023-07-20T02:40:52;15.60;99.90
59301;DHT22;45073;52.740;6.784;2023-07-20T02:43:18;15.50;99.90
59301;DHT22;45073;52.740;6.784;2023-07-20T02:45:43;15.40;99.90
59301;DHT22;45073;52.740;6.784;2023-07-20T02:48:09;15.30;99.90
59301;DHT22;45073;52.740;6.784;2023-07-20T02:50:35;15.30;99.90
59301;DHT22;45073;52.740;6.784;2023-07-20T02:53:01;15.30;99.90
59301;DHT22;45073;52.740;6.784;2023-07-20T02:55:26;15.20;99.90
59301;DHT22;45073;52.740;6.784;2023-07-20T02:57:52;15.20;99.90
59301;DHT22;45073;52.740;6.784;2023-07-20T03:00:18;15.20;99.90
59301;DHT22;45073;52.740;6.784;2023-07-20T03:02:45;15.10;99.90
59301;DHT22;45073;52.740;6.784;2023-07-20T03:05:13;15.10;99.90
59301;DHT22;45073;52.740;6.784;2023-07-20T03:07:39;15.10;99.90
59301;DHT22;45073;52.740;6.784;2023-07-20T03:10:05;15.10;99.90
59301;DHT22;45073;52.740;6.784;2023-07-20T03:12:35;15.00;99.90
59301;DHT22;45073;52.740;6.784;2023-07-20T03:15:02;15.00;99.90
59301;DHT22;45073;52.740;6.784;2023-07-20T03:17:27;14.90;99.90
59301;DHT22;45073;52.740;6.784;2023-07-20T03:19:53;14.80;99.90
59301;DHT22;45073;52.740;6.784;2023-07-20T03:22:18;14.80;99.90
59301;DHT22;45073;52.740;6.784;2023-07-20T03:24:44;14.70;99.90
59301;DHT22;45073;52.740;6.784;2023-07-20T03:27:09;14.60;99.90
59301;DHT22;45073;52.740;6.784;2023-07-20T03:29:35;14.60;99.90
59301;DHT22;45073;52.740;6.784;2023-07-20T03:32:01;14.60;99.90
59301;DHT22;45073;52.740;6.784;2023-07-20T03:34:26;14.60;99.90
59301;DHT22;45073;52.740;6.784;2023-07-20T03:36:52;14.50;99.90
59301;DHT22;45073;52.740;6.784;2023-07-20T03:39:17;14.50;99.90
59301;DHT22;45073;52.740;6.784;2023-07-20T03:41:43;14.50;99.90
59301;DHT22;45073;52.740;6.784;2023-07-20T03:44:08;14.50;99.90
59301;DHT22;45073;52.740;6.784;2023-07-20T03:46:34;14.50;99.90
59301;DHT22;45073;52.740;6.784;2023-07-20T03:49:00;14.40;99.90
59301;DHT22;45073;52.740;6.784;2023-07-20T03:51:26;14.40;99.90
59301;DHT22;45073;52.740;6.784;2023-07-20T03:53:52;14.40;99.90
59301;DHT22;45073;52.740;6.784;2023-07-20T03:56:17;14.40;99.90
59301;DHT22;45073;52.740;6.784;2023-07-20T03:58:43;14.30;99.90
59301;DHT22;45073;52.740;6.784;2023-07-20T04:01:09;14.40;99.90
59301;DHT22;45073;52.740;6.784;2023-07-20T04:03:35;14.40;99.90
59301;DHT22;45073;52.740;6.784;2023-07-20T04:06:01;14.40;99.90
59301;DHT22;45073;52.740;6.784;2023-07-20T04:08:27;14.40;99.90
59301;DHT22;45073;52.740;6.784;2023-07-20T04:10:52;14.30;99.90
59301;DHT22;45073;52.740;6.784;2023-07-20T04:13:18;14.40;99.90
59301;DHT22;45073;52.740;6.784;2023-07-20T04:15:44;14.30;99.90
59301;DHT22;45073;52.740;6.784;2023-07-20T04:18:10;14.30;99.90
59301;DHT22;45073;52.740;6.784;2023-07-20T04:20:35;14.20;99.90
59301;DHT22;45073;52.740;6.784;2023-07-20T04:23:01;14.20;99.90
59301;DHT22;45073;52.740;6.784;2023-07-20T04:25:27;14.20;99.90
59301;DHT22;45073;52.740;6.784;2023-07-20T04:27:52;14.20;99.90
59301;DHT22;45073;52.740;6.784;2023-07-20T04:30:18;14.20;99.90
59301;DHT22;45073;52.740;6.784;2023-07-20T04:32:46;14.20;99.90
59301;DHT22;45073;52.740;6.784;2023-07-20T04:35:17;14.20;99.90
59301;DHT22;45073;52.740;6.784;2023-07-20T04:37:43;14.10;99.90
59301;DHT22;45073;52.740;6.784;2023-07-20T04:40:15;14.00;99.90
59301;DHT22;45073;52.740;6.784;2023-07-20T04:42:41;14.00;99.90
59301;DHT22;45073;52.740;6.784;2023-07-20T04:45:07;13.90;99.90
59301;DHT22;45073;52.740;6.784;2023-07-20T04:47:32;14.00;99.90
59301;DHT22;45073;52.740;6.784;2023-07-20T04:49:58;14.00;99.90
59301;DHT22;45073;52.740;6.784;2023-07-20T04:52:24;14.00;99.90
59301;DHT22;45073;52.740;6.784;2023-07-20T04:54:49;13.90;99.90
59301;DHT22;45073;52.740;6.784;2023-07-20T04:57:15;13.90;99.90
59301;DHT22;45073;52.740;6.784;2023-07-20T04:59:40;14.00;99.90
59301;DHT22;45073;52.740;6.784;2023-07-20T05:02:06;14.00;99.90
59301;DHT22;45073;52.740;6.784;2023-07-20T05:04:31;14.00;99.90
59301;DHT22;45073;52.740;6.784;2023-07-20T05:06:57;14.10;99.90
59301;DHT22;45073;52.740;6.784;2023-07-20T05:09:23;14.10;99.90
59301;DHT22;45073;52.740;6.784;2023-07-20T05:11:48;14.20;99.90
59301;DHT22;45073;52.740;6.784;2023-07-20T05:14:14;14.20;99.90
59301;DHT22;45073;52.740;6.784;2023-07-20T05:16:39;14.20;99.90
59301;DHT22;45073;52.740;6.784;2023-07-20T05:19:05;14.20;99.90
59301;DHT22;45073;52.740;6.784;2023-07-20T05:21:31;14.30;99.90
59301;DHT22;45073;52.740;6.784;2023-07-20T05:23:57;14.30;99.90
59301;DHT22;45073;52.740;6.784;2023-07-20T05:26:22;14.40;99.90
59301;DHT22;45073;52.740;6.784;2023-07-20T05:28:48;14.50;99.90
59301;DHT22;45073;52.740;6.784;2023-07-20T05:31:14;14.50;99.90
59301;DHT22;45073;52.740;6.784;2023-07-20T05:33:39;14.50;99.90
59301;DHT22;45073;52.740;6.784;2023-07-20T05:36:05;14.60;99.90
59301;DHT22;45073;52.740;6.784;2023-07-20T05:38:30;14.60;99.90
59301;DHT22;45073;52.740;6.784;2023-07-20T05:40:59;14.70;99.90
59301;DHT22;45073;52.740;6.784;2023-07-20T05:43:27;14.70;99.90
59301;DHT22;45073;52.740;6.784;2023-07-20T05:45:53;14.80;99.90
59301;DHT22;45073;52.740;6.784;2023-07-20T05:48:21;14.80;99.90
59301;DHT22;45073;52.740;6.784;2023-07-20T05:50:47;14.90;99.90
59301;DHT22;45073;52.740;6.784;2023-07-20T05:53:13;14.90;99.90
59301;DHT22;45073;52.740;6.784;2023-07-20T05:55:39;14.90;99.90
59301;DHT22;45073;52.740;6.784;2023-07-20T05:58:05;15.10;99.90
59301;DHT22;45073;52.740;6.784;2023-07-20T06:00:31;15.20;99.90
59301;DHT22;45073;52.740;6.784;2023-07-20T06:02:57;15.30;99.90
59301;DHT22;45073;52.740;6.784;2023-07-20T06:05:23;15.30;99.90
59301;DHT22;45073;52.740;6.784;2023-07-20T06:07:49;15.40;99.90
59301;DHT22;45073;52.740;6.784;2023-07-20T06:10:15;15.50;99.90
59301;DHT22;45073;52.740;6.784;2023-07-20T06:12:41;15.60;99.90
59301;DHT22;45073;52.740;6.784;2023-07-20T06:15:27;15.70;99.90
59301;DHT22;45073;52.740;6.784;2023-07-20T06:17:54;15.70;99.90
59301;DHT22;45073;52.740;6.784;2023-07-20T06:20:20;15.60;99.90
59301;DHT22;45073;52.740;6.784;2023-07-20T06:22:45;15.80;99.90
59301;DHT22;45073;52.740;6.784;2023-07-20T06:25:11;15.80;99.90
59301;DHT22;45073;52.740;6.784;2023-07-20T06:27:36;15.80;99.90
59301;DHT22;45073;52.740;6.784;2023-07-20T06:30:02;15.90;99.90
59301;DHT22;45073;52.740;6.784;2023-07-20T06:32:28;16.00;99.90
59301;DHT22;45073;52.740;6.784;2023-07-20T06:34:53;16.10;99.90
59301;DHT22;45073;52.740;6.784;2023-07-20T06:37:19;16.20;99.90
59301;DHT22;45073;52.740;6.784;2023-07-20T06:39:48;16.20;99.90
59301;DHT22;45073;52.740;6.784;2023-07-20T06:42:13;16.20;99.90
59301;DHT22;45073;52.740;6.784;2023-07-20T06:44:39;16.20;99.90
59301;DHT22;45073;52.740;6.784;2023-07-20T06:47:05;16.30;99.90
59301;DHT22;45073;52.740;6.784;2023-07-20T06:49:30;16.30;99.90
59301;DHT22;45073;52.740;6.784;2023-07-20T06:51:56;16.40;99.90
59301;DHT22;45073;52.740;6.784;2023-07-20T06:54:22;16.40;99.90
59301;DHT22;45073;52.740;6.784;2023-07-20T06:56:48;16.50;99.90
59301;DHT22;45073;52.740;6.784;2023-07-20T06:59:13;16.50;99.90
59301;DHT22;45073;52.740;6.784;2023-07-20T07:01:39;16.60;99.90
59301;DHT22;45073;52.740;6.784;2023-07-20T07:04:04;16.60;99.90
59301;DHT22;45073;52.740;6.784;2023-07-20T07:06:31;16.70;99.90
59301;DHT22;45073;52.740;6.784;2023-07-20T07:08:56;16.80;99.90
59301;DHT22;45073;52.740;6.784;2023-07-20T07:11:22;16.80;99.90
59301;DHT22;45073;52.740;6.784;2023-07-20T07:13:48;16.90;99.90
59301;DHT22;45073;52.740;6.784;2023-07-20T07:16:16;17.00;99.90
59301;DHT22;45073;52.740;6.784;2023-07-20T07:18:47;17.10;99.90
59301;DHT22;45073;52.740;6.784;2023-07-20T07:21:13;17.20;99.90
59301;DHT22;45073;52.740;6.784;2023-07-20T07:23:39;17.30;99.90
59301;DHT22;45073;52.740;6.784;2023-07-20T07:26:05;17.40;99.90
59301;DHT22;45073;52.740;6.784;2023-07-20T07:28:30;17.40;99.90
59301;DHT22;45073;52.740;6.784;2023-07-20T07:30:57;17.50;99.90
59301;DHT22;45073;52.740;6.784;2023-07-20T07:33:23;17.60;99.90
59301;DHT22;45073;52.740;6.784;2023-07-20T07:35:50;17.70;99.90
59301;DHT22;45073;52.740;6.784;2023-07-20T07:38:16;17.80;99.90
59301;DHT22;45073;52.740;6.784;2023-07-20T07:40:42;17.90;99.90
59301;DHT22;45073;52.740;6.784;2023-07-20T07:43:08;18.00;99.90
59301;DHT22;45073;52.740;6.784;2023-07-20T07:45:35;17.90;99.90
59301;DHT22;45073;52.740;6.784;2023-07-20T07:48:04;17.80;99.90
59301;DHT22;45073;52.740;6.784;2023-07-20T07:50:30;17.80;99.90
59301;DHT22;45073;52.740;6.784;2023-07-20T07:52:56;17.80;99.90
59301;DHT22;45073;52.740;6.784;2023-07-20T07:55:21;17.80;99.90
59301;DHT22;45073;52.740;6.784;2023-07-20T07:57:47;17.90;99.90
59301;DHT22;45073;52.740;6.784;2023-07-20T08:00:14;17.90;99.90
59301;DHT22;45073;52.740;6.784;2023-07-20T08:02:43;17.90;99.90
59301;DHT22;45073;52.740;6.784;2023-07-20T08:05:09;18.00;99.90
59301;DHT22;45073;52.740;6.784;2023-07-20T08:07:35;18.00;99.90
59301;DHT22;45073;52.740;6.784;2023-07-20T08:10:01;18.00;99.90
59301;DHT22;45073;52.740;6.784;2023-07-20T08:12:27;18.00;99.90
59301;DHT22;45073;52.740;6.784;2023-07-20T08:14:52;18.00;99.90
59301;DHT22;45073;52.740;6.784;2023-07-20T08:17:18;18.00;99.90
59301;DHT22;45073;52.740;6.784;2023-07-20T08:19:44;17.90;99.90
59301;DHT22;45073;52.740;6.784;2023-07-20T08:22:10;17.90;99.90
59301;DHT22;45073;52.740;6.784;2023-07-20T08:24:40;18.10;99.90
59301;DHT22;45073;52.740;6.784;2023-07-20T08:27:06;18.30;99.90
59301;DHT22;45073;52.740;6.784;2023-07-20T08:29:32;18.30;99.90
59301;DHT22;45073;52.740;6.784;2023-07-20T08:31:58;18.50;99.90
59301;DHT22;45073;52.740;6.784;2023-07-20T08:34:23;18.60;99.90
59301;DHT22;45073;52.740;6.784;2023-07-20T08:36:49;18.70;99.90
59301;DHT22;45073;52.740;6.784;2023-07-20T08:39:14;18.80;99.90
59301;DHT22;45073;52.740;6.784;2023-07-20T08:41:42;18.80;99.90
59301;DHT22;45073;52.740;6.784;2023-07-20T08:44:08;18.90;99.90
59301;DHT22;45073;52.740;6.784;2023-07-20T08:46:35;18.90;99.90
59301;DHT22;45073;52.740;6.784;2023-07-20T08:49:03;19.00;99.90
59301;DHT22;45073;52.740;6.784;2023-07-20T08:51:30;19.10;99.90
59301;DHT22;45073;52.740;6.784;2023-07-20T08:53:55;19.20;99.90
59301;DHT22;45073;52.740;6.784;2023-07-20T08:56:23;19.30;99.90
59301;DHT22;45073;52.740;6.784;2023-07-20T08:58:49;19.40;99.90
59301;DHT22;45073;52.740;6.784;2023-07-20T09:01:17;19.60;99.90
59301;DHT22;45073;52.740;6.784;2023-07-20T09:03:45;19.70;99.90
59301;DHT22;45073;52.740;6.784;2023-07-20T09:06:12;19.70;99.90
59301;DHT22;45073;52.740;6.784;2023-07-20T09:08:41;19.80;99.90
59301;DHT22;45073;52.740;6.784;2023-07-20T09:11:07;19.80;99.90
59301;DHT22;45073;52.740;6.784;2023-07-20T09:13:34;19.80;99.90
59301;DHT22;45073;52.740;6.784;2023-07-20T09:15:59;19.80;99.90
59301;DHT22;45073;52.740;6.784;2023-07-20T09:18:30;19.80;99.90
59301;DHT22;45073;52.740;6.784;2023-07-20T09:21:03;19.80;99.80
59301;DHT22;45073;52.740;6.784;2023-07-20T09:23:34;19.80;96.10
59301;DHT22;45073;52.740;6.784;2023-07-20T09:26:00;19.80;98.30
59301;DHT22;45073;52.740;6.784;2023-07-20T09:28:26;20.00;99.80
59301;DHT22;45073;52.740;6.784;2023-07-20T09:30:54;20.10;99.20
59301;DHT22;45073;52.740;6.784;2023-07-20T09:33:24;20.20;99.90
59301;DHT22;45073;52.740;6.784;2023-07-20T09:35:50;20.30;99.90
59301;DHT22;45073;52.740;6.784;2023-07-20T09:38:15;20.30;99.90
59301;DHT22;45073;52.740;6.784;2023-07-20T09:40:42;20.20;99.90
59301;DHT22;45073;52.740;6.784;2023-07-20T09:43:08;20.20;99.30
59301;DHT22;45073;52.740;6.784;2023-07-20T09:45:44;20.20;98.70
59301;DHT22;45073;52.740;6.784;2023-07-20T09:48:10;20.20;97.40
59301;DHT22;45073;52.740;6.784;2023-07-20T09:50:40;20.00;96.70
59301;DHT22;45073;52.740;6.784;2023-07-20T09:53:12;19.90;95.20
59301;DHT22;45073;52.740;6.784;2023-07-20T09:55:47;19.90;95.50
59301;DHT22;45073;52.740;6.784;2023-07-20T09:58:13;19.90;94.50
59301;DHT22;45073;52.740;6.784;2023-07-20T10:00:41;19.90;94.60
59301;DHT22;45073;52.740;6.784;2023-07-20T10:03:20;20.10;93.20
59301;DHT22;45073;52.740;6.784;2023-07-20T10:05:59;20.10;92.60
59301;DHT22;45073;52.740;6.784;2023-07-20T10:08:26;20.30;91.70
59301;DHT22;45073;52.740;6.784;2023-07-20T10:10:53;20.40;91.60
59301;DHT22;45073;52.740;6.784;2023-07-20T10:13:27;20.50;87.80
59301;DHT22;45073;52.740;6.784;2023-07-20T10:16:03;20.40;87.50
59301;DHT22;45073;52.740;6.784;2023-07-20T10:21:12;20.20;86.70
59301;DHT22;45073;52.740;6.784;2023-07-20T10:23:39;20.10;89.70
59301;DHT22;45073;52.740;6.784;2023-07-20T10:26:04;20.00;90.60
59301;DHT22;45073;52.740;6.784;2023-07-20T10:28:31;19.90;91.20
59301;DHT22;45073;52.740;6.784;2023-07-20T10:30:56;19.80;91.30
59301;DHT22;45073;52.740;6.784;2023-07-20T10:33:22;19.80;91.90
59301;DHT22;45073;52.740;6.784;2023-07-20T10:36:02;19.70;91.70
59301;DHT22;45073;52.740;6.784;2023-07-20T10:38:57;19.50;95.20
59301;DHT22;45073;52.740;6.784;2023-07-20T10:41:37;19.20;99.90
59301;DHT22;45073;52.740;6.784;2023-07-20T10:44:07;19.00;99.90
59301;DHT22;45073;52.740;6.784;2023-07-20T10:49:06;18.70;99.90
59301;DHT22;45073;52.740;6.784;2023-07-20T10:51:43;18.60;99.90
59301;DHT22;45073;52.740;6.784;2023-07-20T10:56:41;18.50;99.90
59301;DHT22;45073;52.740;6.784;2023-07-20T10:59:18;18.40;99.90
59301;DHT22;45073;52.740;6.784;2023-07-20T11:01:45;18.40;99.90
59301;DHT22;45073;52.740;6.784;2023-07-20T11:04:12;18.40;99.90
59301;DHT22;45073;52.740;6.784;2023-07-20T11:06:42;18.40;99.90
59301;DHT22;45073;52.740;6.784;2023-07-20T11:09:10;18.40;99.90
59301;DHT22;45073;52.740;6.784;2023-07-20T11:11:47;18.40;99.90
59301;DHT22;45073;52.740;6.784;2023-07-20T11:14:23;18.40;99.90
59301;DHT22;45073;52.740;6.784;2023-07-20T11:16:50;18.30;99.90
59301;DHT22;45073;52.740;6.784;2023-07-20T11:19:17;18.30;99.90
59301;DHT22;45073;52.740;6.784;2023-07-20T11:21:50;18.30;99.90
59301;DHT22;45073;52.740;6.784;2023-07-20T11:24:15;18.30;99.90
59301;DHT22;45073;52.740;6.784;2023-07-20T11:29:11;18.40;99.90
59301;DHT22;45073;52.740;6.784;2023-07-20T11:31:41;18.50;99.90
59301;DHT22;45073;52.740;6.784;2023-07-20T11:34:13;18.50;99.90
59301;DHT22;45073;52.740;6.784;2023-07-20T11:36:44;18.60;99.90
59301;DHT22;45073;52.740;6.784;2023-07-20T11:39:12;18.70;99.90
59301;DHT22;45073;52.740;6.784;2023-07-20T11:41:38;18.70;99.90
59301;DHT22;45073;52.740;6.784;2023-07-20T11:44:06;18.80;99.90
59301;DHT22;45073;52.740;6.784;2023-07-20T11:46:33;18.90;99.90
59301;DHT22;45073;52.740;6.784;2023-07-20T11:48:59;19.00;99.90
59301;DHT22;45073;52.740;6.784;2023-07-20T11:51:27;19.00;99.90
59301;DHT22;45073;52.740;6.784;2023-07-20T11:53:53;19.10;99.90
59301;DHT22;45073;52.740;6.784;2023-07-20T11:56:18;19.20;99.90
59301;DHT22;45073;52.740;6.784;2023-07-20T11:58:45;19.20;99.90
59301;DHT22;45073;52.740;6.784;2023-07-20T12:01:15;19.30;99.90
59301;DHT22;45073;52.740;6.784;2023-07-20T12:03:42;19.40;99.90
59301;DHT22;45073;52.740;6.784;2023-07-20T12:06:09;19.40;99.90
59301;DHT22;45073;52.740;6.784;2023-07-20T12:08:38;19.50;99.90
59301;DHT22;45073;52.740;6.784;2023-07-20T12:11:04;19.60;99.90
59301;DHT22;45073;52.740;6.784;2023-07-20T12:13:42;19.70;99.90
59301;DHT22;45073;52.740;6.784;2023-07-20T12:16:15;19.80;99.90
59301;DHT22;45073;52.740;6.784;2023-07-20T12:18:45;20.00;99.90
59301;DHT22;45073;52.740;6.784;2023-07-20T12:21:11;20.10;99.00
59301;DHT22;45073;52.740;6.784;2023-07-20T12:23:40;20.20;97.30
59301;DHT22;45073;52.740;6.784;2023-07-20T12:26:10;20.30;94.60
59301;DHT22;45073;52.740;6.784;2023-07-20T12:28:40;20.40;94.20
59301;DHT22;45073;52.740;6.784;2023-07-20T12:31:09;20.50;94.70
59301;DHT22;45073;52.740;6.784;2023-07-20T12:33:36;20.60;94.90
59301;DHT22;45073;52.740;6.784;2023-07-20T12:36:06;20.80;93.90
59301;DHT22;45073;52.740;6.784;2023-07-20T12:38:32;21.00;95.50
59301;DHT22;45073;52.740;6.784;2023-07-20T12:40:58;21.10;91.20
59301;DHT22;45073;52.740;6.784;2023-07-20T12:43:24;21.10;86.00
59301;DHT22;45073;52.740;6.784;2023-07-20T12:45:50;21.20;86.80
59301;DHT22;45073;52.740;6.784;2023-07-20T12:48:15;21.40;86.00
59301;DHT22;45073;52.740;6.784;2023-07-20T12:50:41;21.50;85.00
59301;DHT22;45073;52.740;6.784;2023-07-20T12:53:07;21.60;86.00
59301;DHT22;45073;52.740;6.784;2023-07-20T12:55:32;21.60;84.00
59301;DHT22;45073;52.740;6.784;2023-07-20T12:57:58;21.60;84.40
59301;DHT22;45073;52.740;6.784;2023-07-20T13:00:23;21.60;84.80
59301;DHT22;45073;52.740;6.784;2023-07-20T13:02:50;21.70;85.70
59301;DHT22;45073;52.740;6.784;2023-07-20T13:05:15;21.80;84.70
59301;DHT22;45073;52.740;6.784;2023-07-20T13:07:42;21.90;83.90
59301;DHT22;45073;52.740;6.784;2023-07-20T13:10:09;21.90;80.50
59301;DHT22;45073;52.740;6.784;2023-07-20T13:12:36;21.80;78.40
59301;DHT22;45073;52.740;6.784;2023-07-20T13:15:03;21.80;79.70
59301;DHT22;45073;52.740;6.784;2023-07-20T13:17:32;21.70;82.20
59301;DHT22;45073;52.740;6.784;2023-07-20T13:19:58;21.60;82.90
59301;DHT22;45073;52.740;6.784;2023-07-20T13:22:23;21.60;84.90
59301;DHT22;45073;52.740;6.784;2023-07-20T13:24:49;21.40;83.30
59301;DHT22;45073;52.740;6.784;2023-07-20T13:27:16;21.40;85.40
59301;DHT22;45073;52.740;6.784;2023-07-20T13:29:42;21.40;85.20
59301;DHT22;45073;52.740;6.784;2023-07-20T13:32:08;21.30;85.20
59301;DHT22;45073;52.740;6.784;2023-07-20T13:34:34;21.20;85.80
59301;DHT22;45073;52.740;6.784;2023-07-20T13:37:00;21.20;86.70
59301;DHT22;45073;52.740;6.784;2023-07-20T13:39:26;21.10;86.80
59301;DHT22;45073;52.740;6.784;2023-07-20T13:41:55;21.10;87.70
59301;DHT22;45073;52.740;6.784;2023-07-20T13:44:21;21.20;87.10
59301;DHT22;45073;52.740;6.784;2023-07-20T13:46:47;21.20;88.00
59301;DHT22;45073;52.740;6.784;2023-07-20T13:49:13;21.20;89.40
59301;DHT22;45073;52.740;6.784;2023-07-20T13:51:39;21.40;91.00
59301;DHT22;45073;52.740;6.784;2023-07-20T13:54:06;21.70;90.30
59301;DHT22;45073;52.740;6.784;2023-07-20T13:56:31;22.00;83.60
59301;DHT22;45073;52.740;6.784;2023-07-20T13:58:57;21.90;75.80
59301;DHT22;45073;52.740;6.784;2023-07-20T14:01:23;21.70;71.20
59301;DHT22;45073;52.740;6.784;2023-07-20T14:03:50;21.50;68.70
59301;DHT22;45073;52.740;6.784;2023-07-20T14:06:16;21.40;71.50
59301;DHT22;45073;52.740;6.784;2023-07-20T14:08:43;21.40;71.30
59301;DHT22;45073;52.740;6.784;2023-07-20T14:11:12;21.30;71.50
59301;DHT22;45073;52.740;6.784;2023-07-20T14:13:37;21.30;72.50
59301;DHT22;45073;52.740;6.784;2023-07-20T14:16:03;21.20;72.90
59301;DHT22;45073;52.740;6.784;2023-07-20T14:18:29;21.20;72.90
59301;DHT22;45073;52.740;6.784;2023-07-20T14:20:55;21.20;74.50
59301;DHT22;45073;52.740;6.784;2023-07-20T14:23:20;21.20;73.00
59301;DHT22;45073;52.740;6.784;2023-07-20T14:25:46;21.20;72.50
59301;DHT22;45073;52.740;6.784;2023-07-20T14:28:11;21.30;73.60
59301;DHT22;45073;52.740;6.784;2023-07-20T14:30:38;21.40;76.20
59301;DHT22;45073;52.740;6.784;2023-07-20T14:33:03;21.50;76.70
59301;DHT22;45073;52.740;6.784;2023-07-20T14:35:29;21.60;77.30
59301;DHT22;45073;52.740;6.784;2023-07-20T14:37:55;21.90;76.80
59301;DHT22;45073;52.740;6.784;2023-07-20T14:40:20;22.10;75.50
59301;DHT22;45073;52.740;6.784;2023-07-20T14:42:46;22.20;76.10
59301;DHT22;45073;52.740;6.784;2023-07-20T14:45:12;22.30;77.60
59301;DHT22;45073;52.740;6.784;2023-07-20T14:47:37;22.50;76.70
59301;DHT22;45073;52.740;6.784;2023-07-20T14:50:03;22.60;75.90
59301;DHT22;45073;52.740;6.784;2023-07-20T14:52:30;22.70;74.90
59301;DHT22;45073;52.740;6.784;2023-07-20T14:54:56;22.70;75.20
59301;DHT22;45073;52.740;6.784;2023-07-20T14:57:21;22.90;76.20
59301;DHT22;45073;52.740;6.784;2023-07-20T14:59:49;23.10;76.60
59301;DHT22;45073;52.740;6.784;2023-07-20T15:02:15;23.30;77.00
59301;DHT22;45073;52.740;6.784;2023-07-20T15:04:51;23.60;77.50
59301;DHT22;45073;52.740;6.784;2023-07-20T15:07:18;23.70;76.10
59301;DHT22;45073;52.740;6.784;2023-07-20T15:09:45;23.80;76.00
59301;DHT22;45073;52.740;6.784;2023-07-20T15:12:10;23.90;75.50
59301;DHT22;45073;52.740;6.784;2023-07-20T15:14:40;24.00;75.20
59301;DHT22;45073;52.740;6.784;2023-07-20T15:17:10;24.00;74.90
59301;DHT22;45073;52.740;6.784;2023-07-20T15:19:35;24.10;74.40
59301;DHT22;45073;52.740;6.784;2023-07-20T15:22:02;24.00;73.10
59301;DHT22;45073;52.740;6.784;2023-07-20T15:24:29;24.10;73.30
59301;DHT22;45073;52.740;6.784;2023-07-20T15:26:55;24.10;72.50
59301;DHT22;45073;52.740;6.784;2023-07-20T15:29:20;24.10;72.50
59301;DHT22;45073;52.740;6.784;2023-07-20T15:31:47;24.00;72.80
59301;DHT22;45073;52.740;6.784;2023-07-20T15:34:13;24.00;72.30
59301;DHT22;45073;52.740;6.784;2023-07-20T15:36:40;24.10;72.30
59301;DHT22;45073;52.740;6.784;2023-07-20T15:39:07;24.00;71.20
59301;DHT22;45073;52.740;6.784;2023-07-20T15:41:33;24.10;69.60
59301;DHT22;45073;52.740;6.784;2023-07-20T15:43:58;24.00;69.20
59301;DHT22;45073;52.740;6.784;2023-07-20T15:46:44;23.90;69.60
59301;DHT22;45073;52.740;6.784;2023-07-20T15:49:10;23.90;71.40
59301;DHT22;45073;52.740;6.784;2023-07-20T15:51:36;23.90;72.10